Time;durP1;ratioP1;P1;durP2;ratioP2;P2;SDS_P1;SDS_P2;PMS_P1;PMS_P2;Temp;Humidity;BMP_temperature;BMP_pressure;BME280_temperature;BME280_humidity;BME280_pressure;Samples;Min_cycle;Max_cycle;Signal;HPM_P1;HPM_P2
2022/12/18 00:01:26;;;;;;;132.37;51.70;;;;;;;-4.84;76.26;98439.67;1612643;88;25741;-71
2022/12/18 00:03:55;;;;;;;124.60;49.35;;;;;;;-4.89;76.15;98443.88;1611938;88;26542;-68
2022/12/18 00:06:24;;;;;;;144.35;56.53;;;;;;;-4.90;76.10;98451.41;1624417;88;25708;-68
2022/12/18 00:08:51;;;;;;;139.03;53.23;;;;;;;-4.91;76.17;98453.66;1613486;88;25791;-68
2022/12/18 00:11:22;;;;;;;133.20;55.95;;;;;;;-4.83;76.28;98467.71;1617152;88;27800;-67
2022/12/18 00:13:50;;;;;;;133.57;52.23;;;;;;;-4.79;76.29;98463.47;1556174;92;25893;-68
2022/12/18 00:16:21;;;;;;;135.32;54.00;;;;;;;-4.77;76.21;98472.13;1556264;92;25790;-68
2022/12/18 00:18:50;;;;;;;132.15;55.43;;;;;;;-4.71;76.26;98475.70;1556519;90;26058;-70
2022/12/18 00:21:17;;;;;;;139.57;54.15;;;;;;;-4.65;76.25;98476.30;1524683;93;26206;-67
2022/12/18 00:23:45;;;;;;;139.72;55.58;;;;;;;-4.69;76.04;98482.67;1557506;92;27822;-67
2022/12/18 00:26:22;;;;;;;135.00;53.85;;;;;;;-4.68;76.17;98481.73;1561348;91;25946;-67
2022/12/18 00:28:50;;;;;;;138.43;54.20;;;;;;;-4.63;76.22;98483.17;1511747;93;25833;-68
2022/12/18 00:31:21;;;;;;;142.60;55.60;;;;;;;-4.56;76.18;98489.77;1511446;93;26876;-68
2022/12/18 00:33:48;;;;;;;134.72;53.42;;;;;;;-4.57;76.08;98489.85;1511866;94;25838;-68
2022/12/18 00:36:19;;;;;;;139.30;53.40;;;;;;;-4.56;76.11;98483.64;1511557;94;28048;-70
2022/12/18 00:38:47;;;;;;;128.60;50.73;;;;;;;-4.52;76.11;98489.12;1512008;94;25866;-68
2022/12/18 00:44:02;;;;;;;133.15;52.27;;;;;;;-4.48;75.95;98503.82;1511886;94;25764;-72
2022/12/18 00:46:29;;;;;;;144.55;54.30;;;;;;;-4.51;75.92;98508.80;1511678;94;25364;-68
2022/12/18 00:48:56;;;;;;;136.15;52.48;;;;;;;-4.47;75.99;98512.11;1511588;94;27358;-69
2022/12/18 00:51:24;;;;;;;139.47;51.92;;;;;;;-4.43;76.00;98518.41;1505612;94;25431;-71
2022/12/18 00:53:50;;;;;;;133.25;50.30;;;;;;;-4.40;75.95;98524.81;1503592;95;25869;-72
2022/12/18 00:56:17;;;;;;;141.57;51.05;;;;;;;-4.42;75.86;98528.48;1570875;89;26811;-69
2022/12/18 00:58:44;;;;;;;142.07;51.50;;;;;;;-4.44;75.83;98534.30;1595806;89;25849;-69
2022/12/18 01:01:10;;;;;;;137.40;50.65;;;;;;;-4.43;75.88;98532.05;1557512;90;27994;-70
2022/12/18 01:03:37;;;;;;;128.68;47.75;;;;;;;-4.39;75.93;98536.21;1605869;88;25544;-69
2022/12/18 01:06:09;;;;;;;133.95;48.10;;;;;;;-4.38;75.86;98533.48;1595459;89;26970;-71
2022/12/18 01:08:35;;;;;;;;;;;;;;;-4.39;75.72;98539.70;1571778;90;25910;-67
2022/12/18 01:11:11;;;;;;;145.47;53.55;;;;;;;-4.44;75.70;98546.16;1611616;87;25387;-68
2022/12/18 01:13:39;;;;;;;134.85;50.25;;;;;;;-4.46;75.86;98541.45;1532548;92;27447;-71
2022/12/18 01:16:06;;;;;;;132.55;50.10;;;;;;;-4.44;75.81;98546.16;1534182;92;25881;-68
2022/12/18 01:18:33;;;;;;;132.82;49.23;;;;;;;-4.53;75.70;98547.56;1577411;88;25804;-68
2022/12/18 01:21:00;;;;;;;140.65;52.85;;;;;;;-4.55;75.77;98553.86;1574710;90;25776;-68
2022/12/18 01:23:27;;;;;;;132.30;51.70;;;;;;;-4.54;75.84;98552.92;1574497;90;25745;-68
2022/12/18 01:25:53;;;;;;;141.73;52.78;;;;;;;-4.47;75.84;98557.73;1617074;85;28599;-68
2022/12/18 01:28:20;;;;;;;135.85;50.33;;;;;;;-4.43;75.83;98550.50;1663132;86;25804;-69
2022/12/18 01:30:47;;;;;;;129.35;50.00;;;;;;;-4.42;75.81;98554.37;1658645;86;25695;-67
2022/12/18 01:33:14;;;;;;;145.95;50.28;;;;;;;-4.40;75.70;98555.13;1658367;86;26111;-70
2022/12/18 01:35:42;;;;;;;136.75;51.20;;;;;;;-4.39;75.68;98559.94;1658660;86;25764;-68
2022/12/18 01:38:09;;;;;;;129.82;47.58;;;;;;;-4.37;75.66;98560.70;1645335;86;28612;-72
2022/12/18 01:40:36;;;;;;;133.27;48.50;;;;;;;-4.38;75.60;98564.27;1660428;86;25428;-71
2022/12/18 01:43:03;;;;;;;129.70;47.78;;;;;;;-4.36;75.64;98559.76;1658415;86;25843;-68
2022/12/18 01:45:32;;;;;;;127.07;47.43;;;;;;;-4.37;75.51;98566.81;1658565;86;26993;-68
2022/12/18 01:48:06;;;;;;;121.72;45.45;;;;;;;-4.40;75.47;98568.78;1658438;86;25712;-68
2022/12/18 01:50:37;;;;;;;128.27;45.78;;;;;;;-4.47;75.39;98570.09;1660903;86;27592;-68
2022/12/18 01:55:49;;;;;;;125.05;45.25;;;;;;;-4.70;75.23;98576.66;1837988;76;34669;-70
2022/12/18 01:58:18;;;;;;;127.32;45.38;;;;;;;-4.74;75.54;98578.66;1820260;78;26597;-69
2022/12/18 02:00:45;;;;;;;135.68;46.48;;;;;;;-4.71;75.55;98581.09;1806281;77;27375;-70
2022/12/18 02:03:12;;;;;;;129.07;47.10;;;;;;;-4.71;75.58;98582.41;1785630;78;25741;-71
2022/12/18 02:05:53;;;;;;;122.92;45.67;;;;;;;-4.75;75.52;98584.85;1789349;78;26815;-73
2022/12/18 02:08:40;;;;;;;123.60;44.65;;;;;;;-4.74;75.62;98591.82;1781300;78;25699;-69
2022/12/18 02:11:27;;;;;;;123.38;44.73;;;;;;;-4.68;75.63;98591.08;1816900;78;25805;-71
2022/12/18 02:14:02;;;;;;;122.25;44.88;;;;;;;-4.65;75.60;98604.08;1819852;77;27397;-72
2022/12/18 02:16:46;;;;;;;127.17;45.92;;;;;;;-4.61;75.60;98609.56;1795788;77;26250;-74
2022/12/18 02:19:42;;;;;;;109.20;40.80;;;;;;;-4.58;75.57;98609.36;1784407;78;25789;-68
2022/12/18 02:22:30;;;;;;;117.20;43.50;;;;;;;-4.54;75.51;98608.26;1780643;79;25732;-70
2022/12/18 02:25:25;;;;;;;112.45;41.45;;;;;;;-4.62;75.33;98613.98;1781139;79;25772;-72
2022/12/18 02:27:54;;;;;;;117.30;41.20;;;;;;;-4.67;75.28;98622.60;1726840;81;27361;-72
2022/12/18 02:30:22;;;;;;;116.50;40.40;;;;;;;-4.85;75.15;98621.87;1726669;81;25499;-69
2022/12/18 02:32:52;;;;;;;112.72;39.88;;;;;;;-4.87;75.32;98630.33;1726838;81;25820;-70
2022/12/18 02:35:27;;;;;;;111.92;40.52;;;;;;;-4.90;75.27;98625.69;1726702;81;25914;-69
2022/12/18 02:37:55;;;;;;;103.02;38.55;;;;;;;-5.04;75.14;98633.03;1726229;81;25854;-71
2022/12/18 02:40:24;;;;;;;110.48;40.73;;;;;;;-5.13;75.39;98642.30;1726829;81;27402;-69
2022/12/18 02:42:51;;;;;;;109.75;40.92;;;;;;;-5.09;75.56;98638.58;1726650;81;25547;-70
2022/12/18 02:45:18;;;;;;;103.87;40.10;;;;;;;-5.00;75.67;98646.42;1726599;81;25801;-70
2022/12/18 02:47:49;;;;;;;98.65;38.55;;;;;;;-5.00;75.47;98646.89;1726776;81;25810;-69
2022/12/18 02:50:26;;;;;;;104.20;40.40;;;;;;;-5.03;75.51;98643.95;1726891;81;25765;-69
2022/12/18 02:53:11;;;;;;;104.15;40.60;;;;;;;-5.09;75.47;98646.94;1641155;86;27463;-68
2022/12/18 02:56:14;;;;;;;101.60;38.92;;;;;;;-5.03;75.65;98647.91;1608968;87;25747;-69
2022/12/18 02:59:02;;;;;;;97.88;36.48;;;;;;;-4.93;75.66;98652.19;1604996;89;25775;-70
2022/12/18 03:01:34;;;;;;;105.67;38.78;;;;;;;-4.89;75.59;98655.89;1605411;88;25763;-73
2022/12/18 03:04:21;;;;;;;99.15;37.08;;;;;;;-4.84;75.61;98658.28;1547786;91;25654;-69
2022/12/18 03:06:53;;;;;;;107.97;37.23;;;;;;;-4.89;75.36;98665.11;1558629;90;27591;-69
2022/12/18 03:09:34;;;;;;;100.72;36.88;;;;;;;-4.94;75.27;98669.77;1570597;90;26151;-72
2022/12/18 03:12:30;;;;;;;99.13;36.63;;;;;;;-5.05;75.16;98668.20;1532811;93;25897;-69
2022/12/18 03:15:17;;;;;;;98.15;36.28;;;;;;;-5.14;75.20;98676.14;1511184;92;25875;-69
2022/12/18 03:17:58;;;;;;;87.75;34.65;;;;;;;-5.21;75.28;98680.52;1551815;91;25820;-70
2022/12/18 03:20:28;;;;;;;92.42;37.23;;;;;;;-5.29;75.31;98691.90;1530384;93;27425;-70
2022/12/18 03:23:00;;;;;;;103.32;36.93;;;;;;;-5.33;75.40;98691.23;1529630;93;25777;-70
2022/12/18 03:25:28;;;;;;;80.65;32.58;;;;;;;-5.28;75.53;98690.97;1513603;93;25787;-71
2022/12/18 03:27:59;;;;;;;98.00;38.78;;;;;;;-5.25;75.56;98694.77;1498447;93;25947;-70
2022/12/18 03:30:29;;;;;;;94.52;36.28;;;;;;;-5.31;75.38;98697.24;1546674;90;26795;-71
2022/12/18 03:33:25;;;;;;;98.27;37.40;;;;;;;-5.32;75.48;98702.16;1549061;91;27346;-69
2022/12/18 03:35:52;;;;;;;95.90;34.45;;;;;;;-5.27;75.56;98700.57;1474020;95;25870;-70
2022/12/18 03:38:19;;;;;;;94.77;35.05;;;;;;;-5.27;75.53;98705.37;1473963;95;25930;-69
2022/12/18 03:41:03;;;;;;;93.58;35.05;;;;;;;-5.25;75.56;98708.77;1474086;95;25927;-70
2022/12/18 03:44:04;;;;;;;99.65;36.80;;;;;;;-5.21;75.59;98703.74;1472402;95;25958;-71
2022/12/18 03:46:58;;;;;;;87.30;33.65;;;;;;;-5.16;75.55;98710.91;1409550;100;27501;-70
2022/12/18 03:50:19;;;;;;;88.87;34.90;;;;;;;-5.07;75.48;98721.90;1430754;98;26014;-73
2022/12/18 03:53:03;;;;;;;94.72;34.75;;;;;;;-5.10;75.25;98724.22;1489171;94;25965;-71
2022/12/18 03:55:33;;;;;;;94.40;36.77;;;;;;;-5.20;75.14;98725.19;1459781;96;25623;-69
2022/12/18 03:58:03;;;;;;;87.08;34.15;;;;;;;-5.26;75.09;98730.77;1483147;94;25591;-69
2022/12/18 04:00:32;;;;;;;86.08;35.43;;;;;;;-5.28;75.22;98731.30;1499401;93;28257;-70
2022/12/18 04:03:01;;;;;;;89.32;34.60;;;;;;;-5.29;75.36;98730.06;1502243;94;25948;-69
2022/12/18 04:05:30;;;;;;;87.90;33.42;;;;;;;-5.25;75.46;98727.20;1510658;93;25833;-72
2022/12/18 04:07:58;;;;;;;89.67;34.78;;;;;;;-5.24;75.43;98732.85;1529113;91;25934;-70
2022/12/18 04:10:24;;;;;;;90.17;34.78;;;;;;;-5.18;75.51;98735.61;1547704;91;25777;-70
2022/12/18 04:12:51;;;;;;;93.47;35.20;;;;;;;-5.11;75.56;98733.05;1543078;91;27401;-69
2022/12/18 04:15:18;;;;;;;89.10;33.40;;;;;;;-5.06;75.49;98737.59;1523456;92;25794;-72
2022/12/18 04:17:50;;;;;;;93.58;34.30;;;;;;;-5.09;75.40;98745.67;1543168;91;25893;-69
2022/12/18 04:20:17;;;;;;;93.60;35.00;;;;;;;-5.10;75.41;98750.09;1540885;91;25538;-73
2022/12/18 04:22:44;;;;;;;88.87;33.88;;;;;;;-5.12;75.41;98756.36;1568063;88;25690;-71
2022/12/18 04:25:12;;;;;;;92.82;33.67;;;;;;;-5.13;75.42;98761.23;1618753;88;27455;-71
2022/12/18 04:27:38;;;;;;;88.40;34.08;;;;;;;-5.10;75.48;98767.67;1618737;88;25862;-71
2022/12/18 04:30:07;;;;;;;94.37;35.38;;;;;;;-5.04;75.59;98767.33;1618961;88;26042;-69
2022/12/18 04:32:34;;;;;;;95.92;35.68;;;;;;;-4.95;75.64;98761.56;1638813;84;25882;-70
2022/12/18 04:35:03;;;;;;;91.00;35.28;;;;;;;-4.90;75.56;98766.13;1655315;86;25820;-70
2022/12/18 04:37:30;;;;;;;86.08;32.00;;;;;;;-4.85;75.46;98764.58;1681159;84;28482;-70
2022/12/18 04:39:57;;;;;;;85.05;32.80;;;;;;;-4.83;75.40;98771.44;1689755;84;25536;-69
2022/12/18 04:42:23;;;;;;;85.05;32.80;;;;;;;-4.82;75.25;98770.97;1741744;79;25626;-71
2022/12/18 04:44:50;;;;;;;84.30;31.97;;;;;;;-4.79;75.29;98770.81;1796696;79;25894;-68
2022/12/18 04:47:17;;;;;;;85.12;32.70;;;;;;;-4.75;75.27;98773.21;1797040;78;25651;-70
2022/12/18 04:49:43;;;;;;;90.62;32.35;;;;;;;-4.70;75.24;98779.52;1796701;79;27398;-72
2022/12/18 04:52:10;;;;;;;81.20;30.77;;;;;;;-4.67;75.22;98787.73;1796688;78;25860;-73
2022/12/18 04:54:37;;;;;;;78.15;29.35;;;;;;;-4.66;75.04;98788.13;1796254;78;25419;-72
2022/12/18 04:57:03;;;;;;;84.92;30.50;;;;;;;-4.62;75.02;98794.94;1793888;79;25778;-69
2022/12/18 04:59:30;;;;;;;88.30;31.95;;;;;;;-4.65;74.80;98793.31;1793958;79;25872;-69
2022/12/18 05:01:57;;;;;;;88.80;32.53;;;;;;;-4.66;74.80;98793.39;1793834;79;28136;-69
2022/12/18 05:04:23;;;;;;;94.22;33.48;;;;;;;-4.73;74.80;98793.74;1793730;79;25211;-69
2022/12/18 05:06:50;;;;;;;86.42;33.23;;;;;;;-4.74;74.92;98797.31;1773216;79;25672;-70
2022/12/18 05:09:16;;;;;;;75.47;29.60;;;;;;;-4.77;74.85;98805.37;1792847;79;25850;-69
2022/12/18 05:11:43;;;;;;;93.33;33.15;;;;;;;-4.81;74.79;98804.28;1794004;79;25626;-73
2022/12/18 05:14:10;;;;;;;86.67;31.00;;;;;;;-4.84;74.90;98805.33;1793915;79;27907;-70
2022/12/18 05:16:36;;;;;;;79.15;29.07;;;;;;;-4.81;74.88;98805.60;1793903;78;26326;-70
2022/12/18 05:19:03;;;;;;;81.53;27.93;;;;;;;-4.79;74.90;98804.59;1793794;79;25715;-70
2022/12/18 05:21:30;;;;;;;79.42;29.10;;;;;;;-4.76;74.76;98814.13;1793901;78;25627;-70
2022/12/18 05:23:56;;;;;;;71.47;28.05;;;;;;;-4.82;74.64;98815.28;1793945;79;25380;-71
2022/12/18 05:26:23;;;;;;;76.85;28.12;;;;;;;-4.90;74.58;98816.17;1772204;80;28113;-70
2022/12/18 05:28:50;;;;;;;68.60;25.43;;;;;;;-4.95;74.61;98814.23;1793774;78;25700;-70
2022/12/18 05:31:16;;;;;;;72.12;26.97;;;;;;;-4.95;74.57;98815.55;1793870;78;25635;-70
2022/12/18 05:33:43;;;;;;;70.72;26.20;;;;;;;-4.99;74.47;98820.61;1793951;78;25691;-70
2022/12/18 05:36:11;;;;;;;73.57;28.65;;;;;;;-4.97;74.56;98829.29;1794009;79;25686;-70
2022/12/18 05:38:39;;;;;;;70.57;27.75;;;;;;;-4.93;74.60;98824.22;1793983;79;27413;-69
2022/12/18 05:41:07;;;;;;;72.10;28.32;;;;;;;-4.87;74.61;98833.14;1793766;79;25749;-71
2022/12/18 05:43:37;;;;;;;77.20;27.95;;;;;;;-4.82;74.60;98833.72;1793878;78;25671;-69
2022/12/18 05:46:07;;;;;;;78.12;29.80;;;;;;;-4.74;74.60;98839.92;1793816;78;25653;-72
2022/12/18 05:48:34;;;;;;;71.95;27.07;;;;;;;-4.68;74.53;98837.41;1743951;81;25729;-70
2022/12/18 05:51:08;;;;;;;63.75;25.20;;;;;;;-4.65;74.44;98847.80;1743743;82;26853;-72
2022/12/18 05:53:36;;;;;;;70.90;26.85;;;;;;;-4.66;74.21;98846.09;1743901;82;25825;-69
2022/12/18 05:56:05;;;;;;;72.20;26.55;;;;;;;-4.68;74.17;98847.95;1698861;83;25654;-70
2022/12/18 05:58:33;;;;;;;72.85;28.00;;;;;;;-4.69;74.08;98844.46;1740360;80;25691;-70
2022/12/18 06:01:16;;;;;;;74.07;27.17;;;;;;;-4.74;74.07;98852.63;1731444;80;25893;-70
2022/12/18 06:03:43;;;;;;;77.10;30.02;;;;;;;-4.73;74.17;98851.70;1738908;80;27386;-70
2022/12/18 06:06:19;;;;;;;71.87;27.60;;;;;;;-4.72;74.20;98853.41;1738159;80;25751;-70
2022/12/18 06:08:47;;;;;;;66.95;26.55;;;;;;;-4.67;74.13;98847.02;1727723;80;25791;-70
2022/12/18 06:11:17;;;;;;;74.22;29.02;;;;;;;-4.64;73.97;98846.86;1718609;80;26185;-69
2022/12/18 06:13:44;;;;;;;73.85;28.95;;;;;;;-4.63;73.94;98856.47;1718801;80;25790;-73
2022/12/18 06:16:10;;;;;;;68.95;26.40;;;;;;;-4.65;73.86;98860.97;1739148;80;28344;-70
2022/12/18 06:18:37;;;;;;;59.80;24.75;;;;;;;-4.62;73.96;98863.45;1745741;82;25891;-70
2022/12/18 06:21:04;;;;;;;60.95;24.95;;;;;;;-4.57;73.91;98865.36;1711228;82;25804;-70
2022/12/18 06:23:31;;;;;;;58.50;24.43;;;;;;;-4.54;73.87;98863.88;1718736;80;25984;-70
2022/12/18 06:25:57;;;;;;;62.75;25.27;;;;;;;-4.55;73.67;98880.63;1718614;80;26087;-69
2022/12/18 06:28:24;;;;;;;75.45;26.97;;;;;;;-4.60;73.69;98880.89;1747709;80;27354;-71
2022/12/18 06:30:51;;;;;;;64.12;26.02;;;;;;;-4.59;73.81;98884.38;1743238;80;25741;-70
2022/12/18 06:33:18;;;;;;;72.78;27.10;;;;;;;-4.58;73.82;98883.41;1752032;79;25782;-70
2022/12/18 06:35:44;;;;;;;75.67;28.05;;;;;;;-4.64;73.65;98887.70;1726712;80;25722;-68
2022/12/18 06:38:11;;;;;;;65.57;27.42;;;;;;;-4.71;73.75;98888.02;1726726;80;25450;-69
2022/12/18 06:40:39;;;;;;;65.65;27.55;;;;;;;-4.72;73.74;98890.30;1726737;80;27415;-69
2022/12/18 06:43:06;;;;;;;74.67;28.62;;;;;;;-4.71;73.76;98894.59;1726555;80;25738;-70
2022/12/18 06:45:33;;;;;;;73.17;28.75;;;;;;;-4.70;73.80;98909.94;1744982;80;25747;-70
2022/12/18 06:48:00;;;;;;;70.17;27.80;;;;;;;-4.74;73.80;98910.59;1726702;80;26325;-70
2022/12/18 06:50:26;;;;;;;64.20;25.62;;;;;;;-4.79;73.91;98904.70;1726923;79;25775;-72
2022/12/18 06:52:53;;;;;;;65.20;27.60;;;;;;;-4.80;73.96;98904.31;1798551;77;27428;-70
2022/12/18 06:55:20;;;;;;;72.65;29.65;;;;;;;-4.79;74.07;98904.70;1793451;77;25648;-72
2022/12/18 06:57:47;;;;;;;79.32;33.70;;;;;;;-4.78;74.11;98910.36;1805375;77;25756;-72
2022/12/18 07:00:14;;;;;;;76.90;31.07;;;;;;;-4.73;74.15;98917.56;1811577;77;25714;-73
2022/12/18 07:02:41;;;;;;;63.98;27.40;;;;;;;-4.66;74.12;98915.91;1790562;77;25777;-72
2022/12/18 07:05:08;;;;;;;66.67;27.35;;;;;;;-4.60;74.01;98923.52;1801151;77;27398;-70
2022/12/18 07:07:35;;;;;;;67.25;28.12;;;;;;;-4.52;73.88;98927.91;1800358;77;25865;-70
2022/12/18 07:10:03;;;;;;;68.22;27.22;;;;;;;-4.54;73.59;98922.71;1799130;78;25758;-71
2022/12/18 07:12:30;;;;;;;76.45;28.55;;;;;;;-4.62;73.28;98929.33;1780601;77;26198;-71
2022/12/18 07:14:56;;;;;;;76.65;29.42;;;;;;;-4.66;73.45;98935.67;1780586;77;25395;-70
2022/12/18 07:17:23;;;;;;;83.85;30.92;;;;;;;-4.65;73.44;98942.66;1780707;77;28204;-69
2022/12/18 07:19:49;;;;;;;83.22;28.17;;;;;;;-4.66;73.44;98940.95;1798369;78;25667;-70
2022/12/18 07:22:16;;;;;;;67.47;26.07;;;;;;;-4.66;73.47;98941.80;1793310;78;25680;-69
2022/12/18 07:24:43;;;;;;;74.82;27.20;;;;;;;-4.66;73.44;98946.22;1824482;78;25366;-69
2022/12/18 07:27:09;;;;;;;71.22;28.92;;;;;;;-4.65;73.51;98947.92;1797185;78;25447;-69
2022/12/18 07:29:36;;;;;;;67.22;29.67;;;;;;;-4.68;73.45;98951.56;1790671;77;27352;-70
2022/12/18 07:32:03;;;;;;;76.70;30.65;;;;;;;-4.65;73.38;98962.41;1800897;78;25771;-72
2022/12/18 07:34:29;;;;;;;75.25;29.42;;;;;;;-4.67;73.23;98962.95;1780656;77;25675;-70
2022/12/18 07:36:56;;;;;;;74.45;29.27;;;;;;;-4.66;73.31;98965.98;1780642;78;25651;-70
2022/12/18 07:39:23;;;;;;;75.37;29.75;;;;;;;-4.62;73.35;98969.70;1780712;77;25707;-70
2022/12/18 07:42:30;;;;;;;71.40;28.62;;;;;;;-4.62;73.33;98968.84;1780657;77;27376;-69
2022/12/18 07:44:18;;;;;;;79.87;30.50;;;;;;;-4.62;73.16;98979.39;1775853;78;25462;-73
2022/12/18 07:46:44;;;;;;;73.37;27.30;;;;;;;-4.61;73.17;98972.73;1749222;79;25786;-69
2022/12/18 07:49:11;;;;;;;67.65;27.20;;;;;;;-4.58;73.18;98975.64;1780667;77;25712;-70
2022/12/18 07:51:38;;;;;;;72.40;29.07;;;;;;;-4.52;73.21;98977.98;1789223;77;25920;-71
2022/12/18 07:54:04;;;;;;;85.83;33.23;;;;;;;-4.48;73.11;98978.22;1824566;78;27959;-69
2022/12/18 07:56:31;;;;;;;78.55;30.40;;;;;;;-4.46;73.15;98978.50;1822692;77;25943;-69
2022/12/18 07:58:59;;;;;;;85.03;30.72;;;;;;;-4.40;73.18;98983.47;1795422;78;25701;-70
2022/12/18 08:01:26;;;;;;;78.57;29.20;;;;;;;-4.35;73.15;98981.92;1795301;77;26166;-71
2022/12/18 08:03:52;;;;;;;80.40;28.05;;;;;;;-4.31;73.02;98982.13;1795361;78;25718;-69
2022/12/18 08:06:19;;;;;;;69.40;27.30;;;;;;;-4.34;72.94;98980.95;1795470;77;27354;-70
2022/12/18 08:08:46;;;;;;;88.05;32.38;;;;;;;-4.33;72.88;98977.86;1795192;78;25588;-70
2022/12/18 08:11:13;;;;;;;82.08;31.95;;;;;;;-4.29;72.94;98984.22;1795309;77;25662;-72
2022/12/18 08:13:39;;;;;;;73.45;29.57;;;;;;;-4.23;72.88;98988.33;1795416;78;25659;-74
2022/12/18 08:16:08;;;;;;;59.42;25.35;;;;;;;-4.23;72.87;98986.55;1818469;78;25375;-71
2022/12/18 08:18:37;;;;;;;64.50;24.23;;;;;;;-4.14;72.90;98983.41;1814814;78;27377;-70
2022/12/18 08:21:20;;;;;;;57.08;23.25;;;;;;;-4.10;72.67;98991.53;1797754;77;25790;-73
2022/12/18 08:23:47;;;;;;;66.15;25.45;;;;;;;-4.09;72.46;98987.11;1795329;77;25647;-71
2022/12/18 08:26:14;;;;;;;58.85;25.32;;;;;;;-4.15;72.18;98989.63;1794960;77;26494;-70
2022/12/18 08:28:42;;;;;;;64.87;24.50;;;;;;;-4.17;72.15;98985.36;1795083;78;25897;-70
2022/12/18 08:31:09;;;;;;;65.08;24.25;;;;;;;-4.12;72.28;98991.25;1795278;78;27419;-72
2022/12/18 08:33:38;;;;;;;64.77;25.55;;;;;;;-4.06;72.25;98993.08;1795195;78;25681;-71
2022/12/18 08:36:07;;;;;;;114.25;43.30;;;;;;;-4.02;72.14;98989.81;1818139;77;25680;-71
2022/12/18 08:38:34;;;;;;;119.85;39.33;;;;;;;-3.93;72.13;98990.64;1808949;78;25642;-69
2022/12/18 08:41:07;;;;;;;105.50;32.60;;;;;;;-3.90;71.97;98985.67;1827800;78;25679;-71
2022/12/18 08:46:21;;;;;;;59.27;24.20;;;;;;;-3.81;71.90;98992.61;1804548;77;25254;-70
2022/12/18 08:48:51;;;;;;;57.73;22.62;;;;;;;-3.79;71.70;98996.48;1813770;78;26651;-69
2022/12/18 08:51:18;;;;;;;58.50;22.98;;;;;;;-3.82;71.55;98992.22;1818290;78;25643;-70
2022/12/18 08:53:46;;;;;;;59.00;21.57;;;;;;;-3.80;71.44;99001.38;1795437;78;25966;-72
2022/12/18 08:56:14;;;;;;;58.15;22.62;;;;;;;-3.80;71.35;99008.83;1817487;77;27369;-70
2022/12/18 08:58:42;;;;;;;52.45;22.32;;;;;;;-3.79;71.43;99005.26;1827559;78;25722;-72
2022/12/18 09:01:12;;;;;;;67.17;26.27;;;;;;;-3.75;71.40;99012.55;1807630;77;25235;-70
2022/12/18 09:03:40;;;;;;;76.60;27.17;;;;;;;-3.68;71.48;99007.30;1818232;78;25450;-75
2022/12/18 09:06:07;;;;;;;58.50;23.38;;;;;;;-3.57;71.47;99014.16;1795320;78;25747;-70
2022/12/18 09:08:35;;;;;;;49.70;21.80;;;;;;;-3.54;71.27;99016.64;1795340;78;27367;-70
2022/12/18 09:11:05;;;;;;;56.75;23.07;;;;;;;-3.51;71.23;99017.80;1795280;77;25815;-71
2022/12/18 09:13:31;;;;;;;53.90;21.57;;;;;;;-3.45;71.17;99018.77;1794107;78;25740;-70
2022/12/18 09:15:58;;;;;;;44.42;19.77;;;;;;;-3.40;70.97;99019.38;1797691;78;25724;-70
2022/12/18 09:18:25;;;;;;;67.67;26.95;;;;;;;-3.35;70.94;99023.92;1795298;78;25247;-70
2022/12/18 09:20:52;;;;;;;53.52;21.62;;;;;;;-3.23;70.92;99026.80;1818412;78;27362;-70
2022/12/18 09:23:20;;;;;;;47.00;20.90;;;;;;;-3.17;70.78;99031.29;1795173;77;25681;-69
2022/12/18 09:25:47;;;;;;;53.05;22.20;;;;;;;-3.23;70.37;99028.13;1818251;78;25745;-71
2022/12/18 09:28:17;;;;;;;45.58;20.30;;;;;;;-3.26;70.44;99032.64;1795281;78;25686;-70
2022/12/18 09:30:48;;;;;;;49.85;21.82;;;;;;;-3.19;70.50;99037.59;1818095;78;25938;-69
2022/12/18 09:33:16;;;;;;;54.88;23.60;;;;;;;-3.21;70.07;99042.10;1807771;78;27606;-71
2022/12/18 09:35:45;;;;;;;55.10;24.52;;;;;;;-3.24;70.26;99043.59;1796736;77;25769;-70
2022/12/18 09:38:16;;;;;;;46.60;19.12;;;;;;;-3.17;70.45;99042.33;1811057;77;25730;-70
2022/12/18 09:40:52;;;;;;;47.30;19.60;;;;;;;-3.10;70.44;99041.03;1856087;77;25749;-71
2022/12/18 09:43:43;;;;;;;53.08;23.02;;;;;;;-3.04;70.32;99038.05;1853251;77;25706;-72
2022/12/18 09:46:17;;;;;;;58.60;25.10;;;;;;;-3.01;70.18;99033.89;1816797;78;28236;-74
2022/12/18 09:48:48;;;;;;;59.30;24.15;;;;;;;-2.96;70.19;99029.22;1788680;79;25792;-73
2022/12/18 09:51:23;;;;;;;56.37;24.47;;;;;;;-2.95;70.11;99035.73;1810651;79;25748;-69
2022/12/18 09:53:57;;;;;;;61.50;25.95;;;;;;;-2.95;70.03;99033.56;1699254;82;25769;-72
2022/12/18 09:56:28;;;;;;;56.60;23.27;;;;;;;-2.95;69.88;99033.09;1640267;86;25809;-70
2022/12/18 09:59:01;;;;;;;52.43;22.15;;;;;;;-3.00;69.71;99038.24;1622854;86;28320;-71
2022/12/18 10:01:28;;;;;;;;;;;;;;;-3.05;69.71;99043.81;1653038;86;25758;-71
2022/12/18 10:03:55;;;;;;;55.17;23.45;;;;;;;-3.04;69.67;99035.41;1651668;86;25804;-70
2022/12/18 10:06:33;;;;;;;56.23;23.62;;;;;;;-3.08;69.67;99043.97;1641550;86;25559;-71
2022/12/18 10:09:20;;;;;;;61.28;25.85;;;;;;;-3.11;69.57;99040.64;1570890;89;26095;-70
2022/12/18 10:12:19;;;;;;;56.83;24.45;;;;;;;-3.10;69.76;99037.06;1572560;89;28276;-70
2022/12/18 10:15:22;;;;;;;50.58;21.62;;;;;;;-3.12;69.62;99040.26;1553058;90;25873;-69
2022/12/18 10:18:18;;;;;;;53.20;22.52;;;;;;;-3.13;69.47;99036.77;1536284;91;25847;-70
2022/12/18 10:20:53;;;;;;;48.68;23.05;;;;;;;-3.16;69.51;99048.84;1554889;91;26056;-70
2022/12/18 10:23:40;;;;;;;53.02;22.87;;;;;;;-3.20;69.33;99043.34;1563339;91;25944;-70
2022/12/18 10:26:10;;;;;;;53.20;21.05;;;;;;;-3.17;69.64;99044.97;1563326;91;27486;-70
2022/12/18 10:28:40;;;;;;;52.70;21.42;;;;;;;-3.13;69.50;99042.52;1563259;91;26212;-72
2022/12/18 10:31:23;;;;;;;51.10;21.90;;;;;;;-3.05;69.45;99042.95;1563245;91;25851;-69
2022/12/18 10:33:49;;;;;;;60.52;26.35;;;;;;;-3.01;69.27;99039.17;1547027;92;26363;-70
2022/12/18 10:36:16;;;;;;;61.85;26.27;;;;;;;-3.08;69.02;99032.09;1546872;92;25919;-70
2022/12/18 10:38:43;;;;;;;54.75;21.27;;;;;;;-3.06;69.18;99043.42;1547065;92;28232;-72
2022/12/18 10:41:27;;;;;;;55.38;22.35;;;;;;;-3.00;69.23;99043.53;1547040;92;25843;-73
2022/12/18 10:44:20;;;;;;;63.35;24.40;;;;;;;-2.97;69.10;99046.00;1539436;92;25836;-70
2022/12/18 10:46:51;;;;;;;51.90;21.02;;;;;;;-3.02;68.97;99034.86;1556732;91;25921;-70
2022/12/18 10:49:30;;;;;;;49.93;20.75;;;;;;;-3.00;68.94;99036.92;1480590;96;25611;-70
2022/12/18 10:52:23;;;;;;;47.25;20.10;;;;;;;-3.09;68.70;99030.84;1472701;95;27461;-73
2022/12/18 10:55:02;;;;;;;49.77;21.75;;;;;;;-3.14;68.69;99032.91;1524899;93;25904;-69
2022/12/18 10:57:38;;;;;;;48.40;20.25;;;;;;;-3.15;68.78;99036.02;1425389;99;25919;-70
2022/12/18 11:00:28;;;;;;;52.93;20.68;;;;;;;-3.15;68.75;99028.57;1415393;99;25461;-70
2022/12/18 11:02:56;;;;;;;48.68;20.77;;;;;;;-3.14;68.56;99023.17;1407564;100;25905;-69
2022/12/18 11:05:28;;;;;;;50.08;21.70;;;;;;;-3.26;68.26;99021.25;1408185;99;27649;-73
2022/12/18 11:07:57;;;;;;;52.78;23.27;;;;;;;-3.39;68.39;99022.41;1376735;104;25896;-70
2022/12/18 11:10:31;;;;;;;61.18;26.07;;;;;;;-3.31;68.69;99020.18;1376243;103;25859;-72
2022/12/18 11:13:24;;;;;;;65.65;26.30;;;;;;;-3.21;68.80;99014.38;1397226;100;25921;-71
2022/12/18 11:15:51;;;;;;;69.00;26.68;;;;;;;-3.11;68.76;99012.91;1406842;100;26011;-73
2022/12/18 11:18:29;;;;;;;65.72;27.77;;;;;;;-3.07;68.64;99018.41;1404615;100;27471;-74
2022/12/18 11:21:09;;;;;;;60.17;26.02;;;;;;;-3.03;68.49;99014.66;1407842;100;25845;-72
2022/12/18 11:23:39;;;;;;;61.55;26.12;;;;;;;-3.01;68.44;99007.48;1365870;103;25839;-70
2022/12/18 11:26:06;;;;;;;51.73;22.82;;;;;;;-2.98;68.42;99002.02;1365883;103;25918;-70
2022/12/18 11:28:43;;;;;;;58.60;26.02;;;;;;;-2.99;68.14;98993.71;1372508;102;25959;-70
2022/12/18 11:31:21;;;;;;;80.28;32.50;;;;;;;-3.05;68.13;98995.41;1406170;101;28455;-70
2022/12/18 11:33:53;;;;;;;94.22;39.33;;;;;;;-3.08;68.24;98995.10;1406023;101;25830;-72
2022/12/18 11:36:22;;;;;;;81.95;32.23;;;;;;;-3.05;68.29;98997.58;1348365;106;26005;-74
2022/12/18 11:38:52;;;;;;;62.83;26.27;;;;;;;-3.03;68.27;99004.09;1345807;106;25833;-72
2022/12/18 11:44:29;;;;;;;72.82;28.52;;;;;;;-3.01;68.25;98988.98;1333577;106;27486;-70